createdAt,value
2019-06-26T00:00:36.452Z,19.57
2019-06-26T00:03:04.900Z,27.47
2019-06-26T00:05:33.439Z,22.90
2019-06-26T00:08:01.998Z,24.87
2019-06-26T00:10:30.612Z,20.10
2019-06-26T00:12:58.915Z,24.37
2019-06-26T00:15:27.200Z,25.63
2019-06-26T00:17:55.490Z,23.47
2019-06-26T00:20:23.779Z,21.13
2019-06-26T00:22:52.070Z,22.40
2019-06-26T00:25:20.678Z,18.23
2019-06-26T00:27:48.984Z,25.80
2019-06-26T00:30:17.767Z,19.53
2019-06-26T00:32:48.086Z,21.27
2019-06-26T00:35:16.394Z,22.50
2019-06-26T00:37:45.027Z,18.30
2019-06-26T00:40:13.613Z,17.73
2019-06-26T00:42:41.901Z,19.30
2019-06-26T00:45:10.369Z,30.97
2019-06-26T00:47:38.958Z,30.50
2019-06-26T00:50:08.048Z,26.87
2019-06-26T00:52:36.352Z,30.50
2019-06-26T00:55:05.683Z,27.43
2019-06-26T00:57:33.977Z,32.57
2019-06-26T01:00:04.257Z,35.00
2019-06-26T01:02:32.643Z,39.13
2019-06-26T01:05:02.827Z,34.50
2019-06-26T01:07:31.143Z,35.87
2019-06-26T01:09:59.791Z,38.00
2019-06-26T01:12:28.370Z,36.70
2019-06-26T01:14:56.966Z,33.97
2019-06-26T01:17:25.651Z,31.40
2019-06-26T01:19:54.233Z,33.47
2019-06-26T01:22:22.538Z,30.10
2019-06-26T01:24:50.820Z,31.53
2019-06-26T01:27:19.676Z,27.67
2019-06-26T01:29:47.952Z,41.93
2019-06-26T01:32:16.772Z,28.30
2019-06-26T01:34:45.153Z,33.10
2019-06-26T01:37:13.610Z,33.70
2019-06-26T01:39:42.179Z,28.67
2019-06-26T01:42:11.094Z,27.23
2019-06-26T01:44:39.459Z,31.57
2019-06-26T01:47:08.019Z,23.93
2019-06-26T01:49:36.641Z,27.40
2019-06-26T01:52:05.039Z,25.27
2019-06-26T01:54:33.574Z,27.70
2019-06-26T01:57:01.872Z,24.80
2019-06-26T01:59:30.159Z,23.87
2019-06-26T02:01:58.553Z,25.70
2019-06-26T02:04:26.838Z,33.57
2019-06-26T02:06:55.168Z,25.37
2019-06-26T02:09:23.861Z,28.63
2019-06-26T02:11:52.172Z,21.90
2019-06-26T02:14:30.549Z,19.03
2019-06-26T02:16:50.532Z,23.90
2019-06-26T02:19:20.544Z,20.40
2019-06-26T02:21:48.910Z,23.07
2019-06-26T02:24:17.504Z,23.87
2019-06-26T02:26:45.785Z,23.83
2019-06-26T02:29:14.086Z,26.63
2019-06-26T02:31:42.616Z,22.23
2019-06-26T02:34:10.904Z,17.73
2019-06-26T02:36:39.220Z,18.50
2019-06-26T02:39:07.519Z,20.17
2019-06-26T02:41:36.433Z,18.90
2019-06-26T02:44:05.142Z,19.07
2019-06-26T02:46:33.441Z,21.30
2019-06-26T02:49:01.719Z,19.90
2019-06-26T02:51:30.283Z,20.47
2019-06-26T02:53:58.868Z,19.80
2019-06-26T02:56:27.171Z,19.30
2019-06-26T02:58:55.539Z,19.47
2019-06-26T03:01:23.819Z,22.47
2019-06-26T03:03:52.124Z,15.43
2019-06-26T03:06:20.394Z,19.17
2019-06-26T03:08:49.035Z,21.63
2019-06-26T03:11:17.617Z,17.43
2019-06-26T03:13:45.918Z,21.07
2019-06-26T03:16:14.206Z,16.93
2019-06-26T03:18:42.755Z,15.83
2019-06-26T03:21:11.311Z,16.87
2019-06-26T03:23:39.669Z,20.80
2019-06-26T03:26:08.107Z,17.77
2019-06-26T03:28:36.404Z,18.37
2019-06-26T03:31:04.884Z,16.33
2019-06-26T03:33:33.230Z,24.37
2019-06-26T03:36:01.522Z,21.40
2019-06-26T03:38:30.094Z,19.93
2019-06-26T03:40:58.684Z,22.30
2019-06-26T03:43:27.262Z,23.13
2019-06-26T03:45:55.616Z,20.17
2019-06-26T03:48:24.032Z,15.80
2019-06-26T03:50:52.317Z,25.13
2019-06-26T03:53:20.613Z,21.80
2019-06-26T03:55:48.884Z,22.10
2019-06-26T03:58:17.431Z,20.07
2019-06-26T04:00:46.017Z,19.20
2019-06-26T04:03:14.295Z,22.53
2019-06-26T04:05:42.598Z,23.03
2019-06-26T04:08:10.885Z,22.83
2019-06-26T04:10:39.177Z,24.03
2019-06-26T04:13:07.466Z,18.80
2019-06-26T04:15:41.931Z,20.33
2019-06-26T04:18:06.408Z,22.47
2019-06-26T04:20:34.985Z,22.13
2019-06-26T04:23:03.279Z,18.30
2019-06-26T04:25:31.566Z,19.77
2019-06-26T04:28:00.123Z,18.90
2019-06-26T04:30:28.397Z,17.73
2019-06-26T04:32:56.697Z,22.47
2019-06-26T04:35:25.372Z,17.47
2019-06-26T04:37:53.641Z,20.47
2019-06-26T04:40:21.933Z,22.00
2019-06-26T04:42:50.250Z,18.83
2019-06-26T04:45:18.578Z,14.73
2019-06-26T04:47:47.473Z,16.23
2019-06-26T04:50:15.775Z,20.27
2019-06-26T04:52:44.143Z,22.83
2019-06-26T04:55:13.067Z,16.80
2019-06-26T04:57:41.702Z,17.60
2019-06-26T05:00:10.280Z,22.57
2019-06-26T05:02:38.576Z,21.47
2019-06-26T05:05:06.945Z,16.30
2019-06-26T05:07:35.669Z,17.70
2019-06-26T05:10:05.274Z,18.77
2019-06-26T05:12:33.559Z,18.63
2019-06-26T05:15:01.862Z,16.40
2019-06-26T05:17:30.580Z,18.13
2019-06-26T05:19:58.868Z,16.33
2019-06-26T05:22:27.590Z,18.37
2019-06-26T05:24:55.894Z,16.50
2019-06-26T05:27:24.275Z,17.47
2019-06-26T05:29:54.507Z,15.63
2019-06-26T05:32:22.604Z,18.97
2019-06-26T05:34:50.870Z,18.80
2019-06-26T05:37:19.206Z,17.53
2019-06-26T05:39:47.734Z,20.00
2019-06-26T05:42:16.049Z,15.93
2019-06-26T05:44:44.689Z,17.23
2019-06-26T05:47:13.103Z,18.93
2019-06-26T05:49:41.488Z,17.60
2019-06-26T05:52:09.777Z,22.43
2019-06-26T05:54:38.065Z,19.70
2019-06-26T05:57:06.390Z,16.87
2019-06-26T05:59:34.659Z,20.60
2019-06-26T06:02:03.242Z,19.70
2019-06-26T06:04:31.803Z,18.60
2019-06-26T06:07:00.079Z,18.37
2019-06-26T06:09:28.420Z,24.23
2019-06-26T06:11:57.055Z,19.73
2019-06-26T06:14:25.751Z,19.73
2019-06-26T06:16:54.054Z,18.87
2019-06-26T06:19:22.343Z,22.33
2019-06-26T06:21:50.618Z,17.60
2019-06-26T06:24:19.296Z,17.23
2019-06-26T06:26:47.662Z,21.63
2019-06-26T06:29:16.323Z,16.17
2019-06-26T06:31:44.918Z,19.27
2019-06-26T06:34:13.495Z,17.33
2019-06-26T06:36:42.090Z,22.13
2019-06-26T06:39:10.486Z,34.53
2019-06-26T06:41:38.779Z,21.47
2019-06-26T06:44:07.411Z,15.90
2019-06-26T06:46:35.690Z,17.27
2019-06-26T06:49:03.991Z,16.40
2019-06-26T06:51:32.550Z,14.30
2019-06-26T06:54:00.849Z,22.90
2019-06-26T06:56:29.513Z,39.70
2019-06-26T06:58:58.075Z,27.97
2019-06-26T07:01:26.418Z,16.90
2019-06-26T07:03:54.732Z,16.13
2019-06-26T07:06:23.445Z,14.43
2019-06-26T07:08:52.021Z,10.40
2019-06-26T07:11:20.314Z,11.73
2019-06-26T07:13:48.885Z,14.83
2019-06-26T07:16:17.206Z,25.43
2019-06-26T07:18:45.748Z,18.03
2019-06-26T07:21:14.064Z,13.20
2019-06-26T07:23:42.338Z,13.43
2019-06-26T07:26:13.278Z,8.87
2019-06-26T07:28:40.893Z,9.43
2019-06-26T07:31:09.589Z,8.67
2019-06-26T07:33:37.850Z,8.67
2019-06-26T07:36:06.157Z,10.33
2019-06-26T07:38:34.455Z,12.50
2019-06-26T07:41:02.889Z,12.93
2019-06-26T07:43:31.408Z,18.73
2019-06-26T07:45:59.964Z,38.50
2019-06-26T07:48:28.543Z,17.03
2019-06-26T07:50:56.823Z,16.80
2019-06-26T07:53:25.124Z,21.17
2019-06-26T07:55:53.427Z,19.73
2019-06-26T07:58:21.773Z,17.33
2019-06-26T08:00:50.107Z,15.93
2019-06-26T08:03:18.431Z,15.87
2019-06-26T08:05:46.991Z,14.93
2019-06-26T08:08:15.696Z,15.73
2019-06-26T08:10:44.194Z,16.43
2019-06-26T08:13:13.054Z,16.40
2019-06-26T08:15:41.838Z,15.33
2019-06-26T08:18:10.151Z,31.07
2019-06-26T08:20:55.081Z,14.93
2019-06-26T08:23:09.095Z,13.37
2019-06-26T08:25:37.810Z,13.73
2019-06-26T08:28:06.106Z,13.13
2019-06-26T08:30:34.486Z,12.83
2019-06-26T08:33:03.048Z,12.07
2019-06-26T08:35:31.626Z,14.73
2019-06-26T08:38:11.006Z,13.40
2019-06-26T08:40:29.924Z,15.33
2019-06-26T08:42:58.218Z,13.33
2019-06-26T08:45:26.799Z,15.00
2019-06-26T08:47:55.140Z,25.65
2019-06-26T08:50:23.746Z,39.27
2019-06-26T08:52:52.325Z,35.80
2019-06-26T08:55:20.927Z,26.83
2019-06-26T08:57:49.245Z,30.90
2019-06-26T09:00:17.746Z,32.43
2019-06-26T09:02:46.366Z,28.27
2019-06-26T09:05:14.820Z,27.17
2019-06-26T09:07:43.432Z,25.63
2019-06-26T09:10:11.870Z,23.63
2019-06-26T09:12:40.327Z,25.53
2019-06-26T09:15:09.407Z,23.77
2019-06-26T09:17:37.698Z,22.80
2019-06-26T09:20:07.475Z,19.00
2019-06-26T09:22:35.786Z,20.90
2019-06-26T09:25:20.123Z,22.17
2019-06-26T09:27:35.818Z,22.70
2019-06-26T09:30:06.410Z,23.67
2019-06-26T09:32:34.994Z,23.17
2019-06-26T09:35:04.607Z,18.23
2019-06-26T09:37:32.914Z,24.93
2019-06-26T09:40:01.197Z,23.13
2019-06-26T09:42:29.589Z,19.03
2019-06-26T09:44:57.960Z,21.30
2019-06-26T09:47:26.255Z,21.10
2019-06-26T09:50:17.259Z,18.33
2019-06-26T09:52:58.298Z,17.83
2019-06-26T09:55:25.645Z,17.83
2019-06-26T09:57:54.005Z,17.33
2019-06-26T10:00:22.547Z,17.07
2019-06-26T10:02:50.862Z,33.57
2019-06-26T10:05:19.138Z,23.60
2019-06-26T10:07:47.448Z,32.47
2019-06-26T10:10:15.758Z,37.50
2019-06-26T10:12:44.107Z,26.93
2019-06-26T10:15:12.387Z,39.70
2019-06-26T10:17:40.796Z,33.83
2019-06-26T10:22:57.051Z,26.53
2019-06-26T10:25:25.631Z,27.13
2019-06-26T10:27:54.356Z,26.33
2019-06-26T10:30:22.739Z,22.30
2019-06-26T10:32:51.135Z,28.70
2019-06-26T10:35:20.154Z,36.87
2019-06-26T10:37:48.450Z,27.23
2019-06-26T10:40:16.984Z,27.07
2019-06-26T10:42:45.621Z,28.70
2019-06-26T10:45:14.200Z,28.67
2019-06-26T10:47:42.778Z,30.03
2019-06-26T10:50:11.061Z,24.00
2019-06-26T10:52:39.658Z,21.57
2019-06-26T10:55:08.430Z,26.17
2019-06-26T10:57:36.785Z,22.60
2019-06-26T11:00:07.996Z,28.07
2019-06-26T11:02:36.321Z,20.50
2019-06-26T11:05:07.177Z,22.87
2019-06-26T11:07:36.616Z,20.83
2019-06-26T11:10:07.093Z,21.80
2019-06-26T11:12:35.715Z,23.10
2019-06-26T11:15:05.859Z,16.67
2019-06-26T11:17:34.165Z,19.27
2019-06-26T11:20:02.526Z,19.73
2019-06-26T11:22:31.258Z,16.33
2019-06-26T11:24:59.949Z,17.27
2019-06-26T11:27:28.729Z,20.33
2019-06-26T11:29:57.339Z,21.80
2019-06-26T11:32:25.622Z,19.27
2019-06-26T11:34:53.983Z,31.97
2019-06-26T11:37:23.230Z,21.87
2019-06-26T11:39:51.870Z,20.97
2019-06-26T11:42:20.262Z,23.27
2019-06-26T11:44:48.650Z,16.67
2019-06-26T11:47:16.998Z,17.77
2019-06-26T11:49:59.091Z,16.57
2019-06-26T11:52:15.996Z,16.50
2019-06-26T11:54:44.728Z,16.73
2019-06-26T11:57:13.476Z,18.93
2019-06-26T11:59:42.149Z,14.40
2019-06-26T12:02:10.532Z,13.53
2019-06-26T12:04:39.077Z,13.53
2019-06-26T12:07:07.429Z,18.93
2019-06-26T12:09:35.757Z,18.10
2019-06-26T12:12:04.690Z,15.57
2019-06-26T12:14:33.042Z,15.60
2019-06-26T12:17:01.629Z,15.67
2019-06-26T12:19:30.158Z,18.23
2019-06-26T12:21:58.461Z,21.83
2019-06-26T12:24:26.849Z,14.60
2019-06-26T12:26:55.395Z,13.30
2019-06-26T12:29:23.781Z,20.17
2019-06-26T12:31:52.079Z,25.40
2019-06-26T12:34:20.690Z,20.47
2019-06-26T12:36:49.947Z,22.37
2019-06-26T12:39:18.389Z,23.43
2019-06-26T12:41:46.676Z,20.37
2019-06-26T12:44:14.984Z,21.67
2019-06-26T12:46:43.603Z,16.97
2019-06-26T12:49:11.926Z,19.40
2019-06-26T12:51:40.230Z,16.10
2019-06-26T12:54:10.864Z,16.03
2019-06-26T12:56:39.142Z,17.27
2019-06-26T12:59:07.778Z,14.83
2019-06-26T13:01:36.048Z,16.87
2019-06-26T13:04:04.413Z,14.27
2019-06-26T13:06:32.995Z,12.03
2019-06-26T13:09:01.442Z,14.77
2019-06-26T13:11:30.259Z,13.63
2019-06-26T13:14:03.034Z,18.40
2019-06-26T13:16:29.266Z,13.50
2019-06-26T13:18:57.559Z,17.33
2019-06-26T13:21:26.881Z,12.07
2019-06-26T13:23:55.284Z,10.13
2019-06-26T13:26:23.909Z,13.40
2019-06-26T13:28:52.496Z,15.60
2019-06-26T13:31:20.792Z,14.07
2019-06-26T13:33:49.063Z,12.77
2019-06-26T13:36:17.358Z,13.73
2019-06-26T13:38:45.912Z,23.97
2019-06-26T13:41:14.209Z,31.37
2019-06-26T13:43:42.770Z,17.73
2019-06-26T13:46:11.062Z,18.20
2019-06-26T13:48:39.342Z,17.70
2019-06-26T13:51:09.771Z,14.23
2019-06-26T13:53:37.640Z,16.87
2019-06-26T13:56:05.934Z,29.47
2019-06-26T13:58:34.474Z,23.27
2019-06-26T14:01:02.775Z,15.63
2019-06-26T14:03:31.338Z,12.73
2019-06-26T14:05:59.626Z,16.40
2019-06-26T14:08:28.206Z,25.33
2019-06-26T14:10:56.493Z,27.77
2019-06-26T14:13:25.064Z,18.90
2019-06-26T14:15:53.734Z,16.90
2019-06-26T14:18:22.042Z,14.83
2019-06-26T14:20:50.410Z,16.97
2019-06-26T14:23:18.691Z,12.43
2019-06-26T14:25:47.383Z,15.30
2019-06-26T14:28:19.487Z,15.03
2019-06-26T14:30:46.319Z,14.83
2019-06-26T14:33:15.476Z,12.83
2019-06-26T14:35:46.542Z,17.80
2019-06-26T14:38:14.843Z,32.73
2019-06-26T14:40:43.254Z,25.53
2019-06-26T14:43:11.590Z,22.17
2019-06-26T14:45:39.966Z,17.43
2019-06-26T14:48:09.115Z,17.13
2019-06-26T14:50:37.859Z,12.67
2019-06-26T14:53:08.343Z,12.30
2019-06-26T14:55:36.951Z,11.93
2019-06-26T14:58:05.723Z,17.10
2019-06-26T15:00:34.111Z,10.80
2019-06-26T15:03:03.341Z,14.47
2019-06-26T15:05:31.990Z,13.97
2019-06-26T15:08:00.818Z,18.70
2019-06-26T15:10:29.658Z,16.47
2019-06-26T15:12:57.955Z,13.93
2019-06-26T15:15:26.306Z,13.60
2019-06-26T15:17:55.092Z,18.33
2019-06-26T15:20:23.674Z,27.73
2019-06-26T15:22:52.079Z,34.23
2019-06-26T15:25:21.157Z,23.30
2019-06-26T15:27:49.479Z,26.70
2019-06-26T15:30:18.580Z,15.57
2019-06-26T15:32:48.579Z,13.37
2019-06-26T15:35:17.731Z,15.77
2019-06-26T15:37:46.814Z,30.10
2019-06-26T15:40:15.808Z,20.87
2019-06-26T15:42:44.486Z,17.50
2019-06-26T15:45:15.085Z,17.67
2019-06-26T15:47:44.180Z,11.37
2019-06-26T15:50:13.281Z,10.80
2019-06-26T15:52:42.382Z,13.10
2019-06-26T15:55:10.931Z,12.63
2019-06-26T15:57:39.737Z,12.90
2019-06-26T16:00:09.232Z,15.37
2019-06-26T16:02:37.538Z,16.17
2019-06-26T16:05:06.511Z,24.10
2019-06-26T16:07:35.237Z,21.17
2019-06-26T16:10:05.793Z,21.43
2019-06-26T16:12:34.094Z,16.43
2019-06-26T16:15:02.366Z,19.30
2019-06-26T16:17:50.008Z,31.63
2019-06-26T16:20:19.002Z,21.07
2019-06-26T16:22:47.359Z,16.40
2019-06-26T16:25:31.173Z,28.93
2019-06-26T16:28:05.473Z,22.50
2019-06-26T16:30:29.628Z,23.83
2019-06-26T16:32:58.277Z,19.63
2019-06-26T16:35:26.809Z,21.67
2019-06-26T16:37:55.441Z,13.73
2019-06-26T16:40:24.023Z,9.13
2019-06-26T16:42:52.307Z,12.83
2019-06-26T16:45:20.887Z,13.27
2019-06-26T16:47:49.166Z,14.57
2019-06-26T16:50:19.069Z,13.83
2019-06-26T16:52:49.546Z,12.67
2019-06-26T16:55:17.551Z,10.03
2019-06-26T16:57:46.020Z,21.50
2019-06-26T17:00:14.590Z,25.57
2019-06-26T17:02:43.087Z,32.67
2019-06-26T17:05:11.673Z,30.07
2019-06-26T17:07:40.145Z,14.83
2019-06-26T17:10:08.519Z,12.80
2019-06-26T17:12:36.819Z,12.87
2019-06-26T17:15:06.961Z,12.50
2019-06-26T17:17:35.545Z,12.43
2019-06-26T17:20:04.485Z,16.00
2019-06-26T17:22:32.951Z,15.37
2019-06-26T17:25:01.238Z,15.37
2019-06-26T17:27:29.885Z,18.00
2019-06-26T17:29:58.286Z,18.93
2019-06-26T17:32:26.948Z,24.93
2019-06-26T17:34:55.571Z,12.03
2019-06-26T17:37:23.938Z,17.03
2019-06-26T17:39:52.503Z,21.10
2019-06-26T17:42:21.180Z,17.30
2019-06-26T17:44:49.860Z,12.83
2019-06-26T17:47:18.467Z,12.50
2019-06-26T17:49:47.134Z,10.93
2019-06-26T17:52:15.425Z,24.20
2019-06-26T17:54:43.996Z,24.33
2019-06-26T17:57:12.289Z,19.60
2019-06-26T17:59:40.860Z,25.60
2019-06-26T18:02:09.138Z,20.20
2019-06-26T18:04:37.442Z,34.13
2019-06-26T18:07:05.755Z,19.97
2019-06-26T18:09:34.057Z,16.93
2019-06-26T18:12:02.349Z,11.57
2019-06-26T18:14:30.849Z,15.87
2019-06-26T18:16:59.558Z,10.90
2019-06-26T18:19:27.993Z,11.30
2019-06-26T18:21:56.438Z,7.63
2019-06-26T18:24:25.059Z,12.10
2019-06-26T18:26:53.447Z,12.57
2019-06-26T18:29:22.119Z,17.00
2019-06-26T18:31:50.419Z,18.37
2019-06-26T18:34:18.711Z,9.57
2019-06-26T18:36:47.362Z,13.87
2019-06-26T18:39:15.644Z,15.47
2019-06-26T18:41:43.963Z,13.47
2019-06-26T18:44:12.706Z,14.53
2019-06-26T18:46:41.025Z,9.47
2019-06-26T18:49:09.314Z,15.63
2019-06-26T18:51:37.635Z,17.03
2019-06-26T18:54:06.050Z,14.90
2019-06-26T18:56:34.807Z,15.67
2019-06-26T18:59:03.379Z,12.33
2019-06-26T19:01:32.071Z,10.70
2019-06-26T19:04:00.366Z,12.77
2019-06-26T19:06:28.843Z,8.30
2019-06-26T19:08:57.403Z,11.17
2019-06-26T19:11:25.716Z,12.50
2019-06-26T19:13:54.101Z,12.87
2019-06-26T19:16:22.481Z,7.30
2019-06-26T19:18:50.839Z,11.03
2019-06-26T19:21:19.132Z,11.70
2019-06-26T19:23:47.843Z,8.70
2019-06-26T19:26:16.488Z,59.77
2019-06-26T19:28:44.906Z,105.07
2019-06-26T19:31:13.643Z,55.93
2019-06-26T19:33:45.626Z,31.97
2019-06-26T19:36:13.484Z,20.27
2019-06-26T19:38:42.558Z,25.23
2019-06-26T19:41:11.272Z,14.23
2019-06-26T19:43:42.054Z,32.30
2019-06-26T19:46:10.757Z,13.53
2019-06-26T19:48:39.088Z,9.03
2019-06-26T19:51:07.501Z,8.93
2019-06-26T19:53:35.941Z,6.53
2019-06-26T19:56:04.415Z,7.27
2019-06-26T19:58:32.713Z,8.33
2019-06-26T20:01:01.044Z,9.70
2019-06-26T20:03:29.816Z,6.97
2019-06-26T20:05:58.519Z,7.13
2019-06-26T20:08:26.970Z,8.93
2019-06-26T20:10:55.694Z,11.63
2019-06-26T20:13:24.021Z,5.60
2019-06-26T20:15:52.372Z,6.10
2019-06-26T20:18:21.031Z,13.03
2019-06-26T20:20:49.524Z,11.23
2019-06-26T20:23:19.939Z,26.33
2019-06-26T20:25:48.257Z,8.37
2019-06-26T20:28:16.872Z,7.77
2019-06-26T20:30:45.493Z,13.23
2019-06-26T20:33:13.804Z,7.90
2019-06-26T20:35:42.163Z,8.03
2019-06-26T20:38:10.716Z,10.90
2019-06-26T20:40:39.008Z,11.93
2019-06-26T20:43:07.592Z,9.07
2019-06-26T20:45:36.159Z,9.30
2019-06-26T20:48:04.458Z,48.17
2019-06-26T20:50:32.755Z,14.10
2019-06-26T20:53:01.324Z,28.37
2019-06-26T20:55:29.687Z,25.17
2019-06-26T20:57:57.987Z,36.23
2019-06-26T21:00:26.351Z,64.53
2019-06-26T21:02:54.917Z,71.93
2019-06-26T21:05:23.551Z,76.40
2019-06-26T21:07:52.209Z,60.93
2019-06-26T21:10:20.494Z,61.00
2019-06-26T21:12:48.802Z,60.67
2019-06-26T21:15:17.116Z,46.10
2019-06-26T21:17:45.456Z,54.73
2019-06-26T21:20:14.034Z,91.93
2019-06-26T21:22:42.683Z,77.13
2019-06-26T21:25:19.061Z,72.07
2019-06-26T21:27:41.568Z,73.40
2019-06-26T21:30:10.470Z,94.77
2019-06-26T21:32:38.845Z,87.30
2019-06-26T21:35:07.212Z,86.93
2019-06-26T21:37:35.807Z,79.93
2019-06-26T21:40:04.689Z,79.03
2019-06-26T21:42:33.360Z,78.30
2019-06-26T21:45:02.016Z,86.07
2019-06-26T21:47:30.707Z,119.07
2019-06-26T21:49:59.330Z,110.40
2019-06-26T21:52:27.638Z,98.20
2019-06-26T21:54:55.964Z,123.20
2019-06-26T21:57:24.378Z,113.83
2019-06-26T21:59:52.836Z,112.10
2019-06-26T22:02:21.164Z,106.60
2019-06-26T22:04:49.460Z,92.00
2019-06-26T22:07:17.756Z,98.20
2019-06-26T22:09:46.133Z,90.20
2019-06-26T22:12:14.526Z,83.30
2019-06-26T22:14:42.975Z,76.50
2019-06-26T22:17:11.610Z,76.20
2019-06-26T22:19:40.392Z,63.97
2019-06-26T22:22:09.900Z,68.70
2019-06-26T22:24:38.482Z,55.10
2019-06-26T22:27:07.015Z,52.30
2019-06-26T22:29:35.649Z,54.00
2019-06-26T22:32:03.959Z,55.43
2019-06-26T22:34:32.517Z,50.33
2019-06-26T22:37:01.114Z,89.67
2019-06-26T22:39:29.779Z,87.53
2019-06-26T22:41:58.391Z,100.57
2019-06-26T22:44:27.142Z,75.03
2019-06-26T22:46:55.433Z,100.73
2019-06-26T22:49:23.756Z,98.53
2019-06-26T22:51:52.038Z,92.70
2019-06-26T22:54:20.343Z,98.13
2019-06-26T22:56:49.048Z,102.63
2019-06-26T22:59:17.649Z,103.37
2019-06-26T23:01:46.215Z,106.93
2019-06-26T23:04:14.523Z,103.80
2019-06-26T23:06:43.008Z,89.87
2019-06-26T23:09:11.312Z,108.37
2019-06-26T23:11:39.674Z,102.90
2019-06-26T23:14:07.985Z,114.47
2019-06-26T23:16:36.272Z,98.40
2019-06-26T23:19:04.879Z,98.37
2019-06-26T23:21:33.531Z,98.33
2019-06-26T23:24:02.375Z,105.37
2019-06-26T23:26:30.658Z,140.43
2019-06-26T23:28:59.324Z,107.53
2019-06-26T23:31:27.613Z,102.47
2019-06-26T23:33:56.295Z,108.87
2019-06-26T23:36:24.867Z,103.73
2019-06-26T23:38:53.218Z,101.73
2019-06-26T23:41:21.511Z,100.87
2019-06-26T23:43:51.286Z,87.43
2019-06-26T23:46:19.587Z,84.97
2019-06-26T23:48:47.939Z,88.83
2019-06-26T23:51:16.246Z,67.33
2019-06-26T23:53:45.029Z,64.70
2019-06-26T23:56:13.635Z,60.43
2019-06-26T23:58:41.948Z,60.70
